createdAt,value
2018-03-31T00:00:06.221Z,20.5
2018-03-31T00:01:06.282Z,20.75
2018-03-31T00:02:06.206Z,20.5
2018-03-31T00:03:06.264Z,20.5
2018-03-31T00:04:06.234Z,20.5
2018-03-31T00:05:06.224Z,20.5
2018-03-31T00:06:06.524Z,20.5
2018-03-31T00:07:06.238Z,20.5
2018-03-31T00:08:06.241Z,20.5
2018-03-31T00:09:06.226Z,20.5
2018-03-31T00:10:06.254Z,20.5
2018-03-31T00:11:06.244Z,20.5
2018-03-31T00:12:06.233Z,20.5
2018-03-31T00:13:06.234Z,20.5
2018-03-31T00:14:06.258Z,20.5
2018-03-31T00:15:06.214Z,20.5
2018-03-31T00:16:06.264Z,20.5
2018-03-31T00:17:06.223Z,20.5
2018-03-31T00:18:06.210Z,20.5
2018-03-31T00:19:06.251Z,20.5
2018-03-31T00:20:06.203Z,20.5
2018-03-31T00:21:06.214Z,20.5
2018-03-31T00:22:06.286Z,20.5
2018-03-31T00:23:06.240Z,20.5
2018-03-31T00:24:06.211Z,20.5
2018-03-31T00:25:06.227Z,20.5
2018-03-31T00:26:06.210Z,20.5
2018-03-31T00:27:06.208Z,20.5
2018-03-31T00:28:06.250Z,20.5
2018-03-31T00:29:06.222Z,20.5
2018-03-31T00:30:06.243Z,20.5
2018-03-31T00:31:06.247Z,20.5
2018-03-31T00:32:06.232Z,20.5
2018-03-31T00:33:06.227Z,20.5
2018-03-31T00:34:06.236Z,20.5
2018-03-31T00:35:06.232Z,20.5
2018-03-31T00:36:06.212Z,20.5
2018-03-31T00:37:06.241Z,20.5
2018-03-31T00:38:06.224Z,20.25
2018-03-31T00:39:06.211Z,20.5
2018-03-31T00:40:06.251Z,20.5
2018-03-31T00:41:06.236Z,20.5
2018-03-31T00:42:06.195Z,20.5
2018-03-31T00:43:06.247Z,20.5
2018-03-31T00:44:06.216Z,20.25
2018-03-31T00:45:06.209Z,20.5
2018-03-31T00:46:06.213Z,20.5
2018-03-31T00:47:06.206Z,20.25
2018-03-31T00:48:06.236Z,20.5
2018-03-31T00:49:06.216Z,20.5
2018-03-31T00:50:06.206Z,20.25
2018-03-31T00:51:06.192Z,20.5
2018-03-31T00:52:06.211Z,20.5
2018-03-31T00:53:06.460Z,20.25
2018-03-31T00:54:06.199Z,20.5
2018-03-31T00:55:06.223Z,20.5
2018-03-31T00:56:06.195Z,20.25
2018-03-31T00:57:06.198Z,20.5
2018-03-31T00:58:06.260Z,20.5
2018-03-31T00:59:06.192Z,20.25
2018-03-31T01:00:06.213Z,20.5
2018-03-31T01:01:06.270Z,20.5
2018-03-31T01:02:06.200Z,20.25
2018-03-31T01:03:06.243Z,20.5
2018-03-31T01:04:06.241Z,20.5
2018-03-31T01:05:06.182Z,20.25
2018-03-31T01:06:06.212Z,20.5
2018-03-31T01:07:06.234Z,20.5
2018-03-31T01:08:06.231Z,20.25
2018-03-31T01:09:06.223Z,20.5
2018-03-31T01:10:06.233Z,20.5
2018-03-31T01:11:06.180Z,20.25
2018-03-31T01:12:06.210Z,20.25
2018-03-31T01:13:06.275Z,20.5
2018-03-31T01:14:06.222Z,20.25
2018-03-31T01:15:06.190Z,20.25
2018-03-31T01:16:06.214Z,20.5
2018-03-31T01:17:06.190Z,20.25
2018-03-31T01:18:06.218Z,20.25
2018-03-31T01:19:06.222Z,20.5
2018-03-31T01:20:06.195Z,20.25
2018-03-31T01:21:06.178Z,20.25
2018-03-31T01:22:06.231Z,20.25
2018-03-31T01:23:06.201Z,20.25
2018-03-31T01:24:06.189Z,20.25
2018-03-31T01:25:06.218Z,20.25
2018-03-31T01:26:06.199Z,20.25
2018-03-31T01:27:06.195Z,20.25
2018-03-31T01:28:06.256Z,20.25
2018-03-31T01:29:06.176Z,20.25
2018-03-31T01:30:06.179Z,20.25
2018-03-31T01:31:06.206Z,20.25
2018-03-31T01:32:06.270Z,20.25
2018-03-31T01:33:06.211Z,20.25
2018-03-31T01:34:06.235Z,20.25
2018-03-31T01:35:06.176Z,20.25
2018-03-31T01:36:06.185Z,20.25
2018-03-31T01:37:06.304Z,20.25
2018-03-31T01:38:06.278Z,20.25
2018-03-31T01:39:06.220Z,20.25
2018-03-31T01:40:06.223Z,20.25
2018-03-31T01:41:06.205Z,20.25
2018-03-31T01:42:06.204Z,20.25
2018-03-31T01:43:06.213Z,20.25
2018-03-31T01:44:06.208Z,20.25
2018-03-31T01:45:06.200Z,20.25
2018-03-31T01:46:06.211Z,20.25
2018-03-31T01:47:06.187Z,20.25
2018-03-31T01:48:06.191Z,20.25
2018-03-31T01:49:06.248Z,20.25
2018-03-31T01:50:06.174Z,20.25
2018-03-31T01:51:06.206Z,20.25
2018-03-31T01:52:06.198Z,20.25
2018-03-31T01:53:06.200Z,20.25
2018-03-31T01:54:06.213Z,20.25
2018-03-31T01:55:06.223Z,20.25
2018-03-31T01:56:06.199Z,20.25
2018-03-31T01:57:06.193Z,20.25
2018-03-31T01:58:06.219Z,20.25
2018-03-31T01:59:06.194Z,20.25
2018-03-31T02:00:06.197Z,20.25
2018-03-31T02:01:06.202Z,20.25
2018-03-31T02:02:06.192Z,20
2018-03-31T02:03:06.249Z,20.25
2018-03-31T02:04:06.250Z,20.25
2018-03-31T02:05:06.176Z,20.25
2018-03-31T02:06:06.195Z,20.25
2018-03-31T02:07:06.207Z,20.25
2018-03-31T02:08:06.209Z,20
2018-03-31T02:09:06.205Z,20.25
2018-03-31T02:10:06.222Z,20.25
2018-03-31T02:11:06.215Z,20.25
2018-03-31T02:12:06.191Z,20.25
2018-03-31T02:13:06.216Z,20.25
2018-03-31T02:14:06.163Z,20
2018-03-31T02:15:06.169Z,20.25
2018-03-31T02:16:06.226Z,20.25
2018-03-31T02:17:06.179Z,20.25
2018-03-31T02:18:06.191Z,20.25
2018-03-31T02:19:06.192Z,20.25
2018-03-31T02:20:06.165Z,20
2018-03-31T02:21:06.176Z,20.25
2018-03-31T02:22:06.217Z,20.25
2018-03-31T02:23:06.190Z,20
2018-03-31T02:24:06.165Z,20.25
2018-03-31T02:25:06.198Z,20.25
2018-03-31T02:26:06.181Z,20
2018-03-31T02:27:06.183Z,20.25
2018-03-31T02:28:06.227Z,20.25
2018-03-31T02:29:06.204Z,20
2018-03-31T02:30:06.176Z,20.25
2018-03-31T02:31:06.221Z,20.25
2018-03-31T02:32:06.156Z,20
2018-03-31T02:33:06.290Z,20.25
2018-03-31T02:34:06.291Z,20.25
2018-03-31T02:35:06.176Z,20
2018-03-31T02:36:06.184Z,20.25
2018-03-31T02:37:06.193Z,20.25
2018-03-31T02:38:06.208Z,20
2018-03-31T02:39:06.172Z,20.25
2018-03-31T02:40:06.215Z,20.25
2018-03-31T02:41:06.212Z,20
2018-03-31T02:42:06.169Z,20.25
2018-03-31T02:43:06.198Z,20.25
2018-03-31T02:44:06.221Z,20
2018-03-31T02:45:06.194Z,20.25
2018-03-31T02:46:06.237Z,20.25
2018-03-31T02:47:06.151Z,20
2018-03-31T02:48:06.190Z,20.25
2018-03-31T02:49:06.209Z,20.25
2018-03-31T02:50:06.472Z,20
2018-03-31T02:51:06.200Z,20.25
2018-03-31T02:52:06.207Z,20.25
2018-03-31T02:53:06.146Z,20
2018-03-31T02:54:06.183Z,20.25
2018-03-31T02:55:06.201Z,20.25
2018-03-31T02:56:06.194Z,20
2018-03-31T02:57:06.222Z,20
2018-03-31T02:58:06.196Z,20.25
2018-03-31T02:59:06.184Z,20
2018-03-31T03:00:06.191Z,20.25
2018-03-31T03:01:06.182Z,20.25
2018-03-31T03:02:06.177Z,20
2018-03-31T03:03:06.185Z,20
2018-03-31T03:04:06.183Z,20.25
2018-03-31T03:05:06.266Z,20
2018-03-31T03:06:06.156Z,20
2018-03-31T03:07:06.184Z,20
2018-03-31T03:08:06.182Z,20
2018-03-31T03:09:06.173Z,20
2018-03-31T03:10:06.219Z,20
2018-03-31T03:11:06.177Z,20
2018-03-31T03:12:06.166Z,20
2018-03-31T03:13:06.191Z,20
2018-03-31T03:14:06.163Z,20
2018-03-31T03:15:06.179Z,20
2018-03-31T03:16:06.195Z,20
2018-03-31T03:17:06.194Z,20
2018-03-31T03:18:06.141Z,20
2018-03-31T03:19:06.179Z,20
2018-03-31T03:20:06.185Z,20
2018-03-31T03:21:06.177Z,20
2018-03-31T03:22:06.180Z,20
2018-03-31T03:23:06.235Z,20
2018-03-31T03:24:06.161Z,20
2018-03-31T03:25:06.204Z,20
2018-03-31T03:26:06.148Z,20
2018-03-31T03:27:06.156Z,20
2018-03-31T03:28:06.159Z,20
2018-03-31T03:29:06.162Z,20
2018-03-31T03:30:06.188Z,20
2018-03-31T03:31:06.188Z,20
2018-03-31T03:32:06.175Z,20
2018-03-31T03:33:06.142Z,20
2018-03-31T03:34:06.175Z,20
2018-03-31T03:35:06.166Z,20
2018-03-31T03:36:06.210Z,20
2018-03-31T03:37:06.187Z,20
2018-03-31T03:38:06.266Z,20
2018-03-31T03:39:06.244Z,20
2018-03-31T03:40:06.201Z,20
2018-03-31T03:41:06.148Z,20
2018-03-31T03:42:06.182Z,20
2018-03-31T03:43:06.163Z,20
2018-03-31T03:44:06.190Z,20
2018-03-31T03:45:06.155Z,20
2018-03-31T03:46:06.151Z,20
2018-03-31T03:47:06.285Z,20
2018-03-31T03:48:06.142Z,20
2018-03-31T03:49:06.181Z,20
2018-03-31T03:50:06.152Z,20
2018-03-31T03:51:06.160Z,20
2018-03-31T03:52:06.213Z,20
2018-03-31T03:53:06.142Z,20
2018-03-31T03:54:06.133Z,20
2018-03-31T03:55:06.173Z,20
2018-03-31T03:56:06.121Z,20
2018-03-31T03:57:06.139Z,20
2018-03-31T03:58:06.202Z,20
2018-03-31T03:59:06.144Z,20
2018-03-31T04:00:06.140Z,20
2018-03-31T04:01:06.173Z,20
2018-03-31T04:02:06.155Z,20
2018-03-31T04:03:06.158Z,20
2018-03-31T04:04:06.168Z,20
2018-03-31T04:05:06.135Z,20
2018-03-31T04:06:06.141Z,20
2018-03-31T04:07:06.239Z,20
2018-03-31T04:08:06.146Z,20
2018-03-31T04:09:06.184Z,20
2018-03-31T04:10:06.173Z,20
2018-03-31T04:11:06.129Z,19.75
2018-03-31T04:12:06.144Z,19.75
2018-03-31T04:13:06.184Z,20
2018-03-31T04:14:06.139Z,19.75
2018-03-31T04:15:06.156Z,20
2018-03-31T04:16:06.177Z,20
2018-03-31T04:17:06.142Z,20
2018-03-31T04:18:06.411Z,20
2018-03-31T04:19:06.148Z,20
2018-03-31T04:20:06.146Z,20
2018-03-31T04:21:06.144Z,20
2018-03-31T04:22:06.153Z,20
2018-03-31T04:23:06.173Z,20
2018-03-31T04:24:06.128Z,20
2018-03-31T04:25:06.154Z,20
2018-03-31T04:26:06.168Z,20
2018-03-31T04:27:06.157Z,20
2018-03-31T04:28:06.178Z,20
2018-03-31T04:29:06.124Z,20
2018-03-31T04:30:06.159Z,20
2018-03-31T04:31:06.206Z,20.25
2018-03-31T04:32:06.146Z,20
2018-03-31T04:33:06.146Z,20.25
2018-03-31T04:34:06.240Z,20.25
2018-03-31T04:35:06.174Z,20
2018-03-31T04:36:06.139Z,20.25
2018-03-31T04:37:06.152Z,20.25
2018-03-31T04:38:06.170Z,20.25
2018-03-31T04:39:06.122Z,20.25
2018-03-31T04:40:06.178Z,20.25
2018-03-31T04:41:06.137Z,20.25
2018-03-31T04:42:06.121Z,20.25
2018-03-31T04:43:06.144Z,20.25
2018-03-31T04:44:06.140Z,20.25
2018-03-31T04:45:06.137Z,20.25
2018-03-31T04:46:06.194Z,20.25
2018-03-31T04:47:06.118Z,20.25
2018-03-31T04:48:06.116Z,20.25
2018-03-31T04:49:06.234Z,20.25
2018-03-31T04:50:06.157Z,20.25
2018-03-31T04:51:06.149Z,20.5
2018-03-31T04:52:06.222Z,20.5
2018-03-31T04:53:06.161Z,20.25
2018-03-31T04:54:06.138Z,20.5
2018-03-31T04:55:06.166Z,20.5
2018-03-31T04:56:06.135Z,20.5
2018-03-31T04:57:06.123Z,20.5
2018-03-31T04:58:06.371Z,20.5
2018-03-31T04:59:06.140Z,20.5
2018-03-31T05:00:06.116Z,20.5
2018-03-31T05:01:06.162Z,20.5
2018-03-31T05:02:06.147Z,20.5
2018-03-31T05:03:06.110Z,20.5
2018-03-31T05:04:06.188Z,20.5
2018-03-31T05:05:06.130Z,20.5
2018-03-31T05:06:06.126Z,20.5
2018-03-31T05:07:06.149Z,20.5
2018-03-31T05:08:06.117Z,20.5
2018-03-31T05:09:06.210Z,20.5
2018-03-31T05:10:06.152Z,20.5
2018-03-31T05:11:06.122Z,20.5
2018-03-31T05:12:06.112Z,20.5
2018-03-31T05:13:06.166Z,20.75
2018-03-31T05:14:06.106Z,20.5
2018-03-31T05:15:06.112Z,20.75
2018-03-31T05:16:06.154Z,20.75
2018-03-31T05:17:06.117Z,20.75
2018-03-31T05:18:06.177Z,20.75
2018-03-31T05:19:06.150Z,20.75
2018-03-31T05:20:06.118Z,20.75
2018-03-31T05:21:06.125Z,20.75
2018-03-31T05:22:06.170Z,20.75
2018-03-31T05:23:06.143Z,20.75
2018-03-31T05:24:06.130Z,20.75
2018-03-31T05:25:06.173Z,20.75
2018-03-31T05:26:06.130Z,20.75
2018-03-31T05:27:06.132Z,20.75
2018-03-31T05:28:06.154Z,20.75
2018-03-31T05:29:06.149Z,20.75
2018-03-31T05:30:06.128Z,20.75
2018-03-31T05:31:06.161Z,20.75
2018-03-31T05:32:06.127Z,20.75
2018-03-31T05:33:06.106Z,20.75
2018-03-31T05:34:06.139Z,20.75
2018-03-31T05:35:06.139Z,20.75
2018-03-31T05:36:06.126Z,20.75
2018-03-31T05:37:06.138Z,20.75
2018-03-31T05:38:06.102Z,20.75
2018-03-31T05:39:06.242Z,20.75
2018-03-31T05:40:06.396Z,20.75
2018-03-31T05:41:06.105Z,20.75
2018-03-31T05:42:06.250Z,20.75
2018-03-31T05:43:06.137Z,21
2018-03-31T05:44:06.129Z,20.75
2018-03-31T05:45:06.105Z,21
2018-03-31T05:46:06.146Z,21
2018-03-31T05:47:06.106Z,20.75
2018-03-31T05:48:06.095Z,21
2018-03-31T05:49:06.414Z,21
2018-03-31T05:50:06.098Z,20.75
2018-03-31T05:51:06.114Z,21
2018-03-31T05:52:06.142Z,21
2018-03-31T05:53:06.117Z,21
2018-03-31T05:54:06.172Z,21
2018-03-31T05:55:06.136Z,21
2018-03-31T05:56:06.120Z,21
2018-03-31T05:57:06.144Z,21
2018-03-31T05:58:06.161Z,21
2018-03-31T05:59:06.407Z,21
2018-03-31T06:00:06.109Z,21
2018-03-31T06:01:06.137Z,21
2018-03-31T06:02:06.112Z,21
2018-03-31T06:03:06.145Z,21
2018-03-31T06:04:06.274Z,21
2018-03-31T06:05:06.107Z,21
2018-03-31T06:06:06.114Z,21
2018-03-31T06:07:06.161Z,21
2018-03-31T06:08:06.092Z,21
2018-03-31T06:09:06.137Z,21
2018-03-31T06:10:06.125Z,21
2018-03-31T06:11:06.148Z,21
2018-03-31T06:12:06.129Z,21
2018-03-31T06:13:06.168Z,21
2018-03-31T06:14:06.095Z,21
2018-03-31T06:15:06.148Z,21
2018-03-31T06:16:06.143Z,21
2018-03-31T06:17:06.105Z,21
2018-03-31T06:18:06.154Z,21
2018-03-31T06:19:06.115Z,21
2018-03-31T06:20:06.127Z,21
2018-03-31T06:21:06.470Z,21
2018-03-31T06:22:06.116Z,21
2018-03-31T06:23:06.098Z,21
2018-03-31T06:24:06.102Z,21
2018-03-31T06:25:06.268Z,21.25
2018-03-31T06:26:06.094Z,21
2018-03-31T06:27:06.102Z,21
2018-03-31T06:28:06.140Z,21.25
2018-03-31T06:29:06.136Z,21
2018-03-31T06:30:06.118Z,21.25
2018-03-31T06:31:06.182Z,21.25
2018-03-31T06:32:06.110Z,21
2018-03-31T06:33:06.104Z,21.25
2018-03-31T06:34:06.131Z,21.25
2018-03-31T06:35:06.124Z,21
2018-03-31T06:36:06.132Z,21.25
2018-03-31T06:37:06.136Z,21.25
2018-03-31T06:38:06.081Z,21.25
2018-03-31T06:39:06.097Z,21.25
2018-03-31T06:40:06.133Z,21.25
2018-03-31T06:41:06.082Z,21.25
2018-03-31T06:42:06.161Z,21.25
2018-03-31T06:43:06.114Z,21.25
2018-03-31T06:44:06.130Z,21.25
2018-03-31T06:45:06.247Z,21.25
2018-03-31T06:46:06.145Z,21.25
2018-03-31T06:47:06.107Z,21.25
2018-03-31T06:48:06.082Z,21.25
2018-03-31T06:49:06.130Z,21.25
2018-03-31T06:50:06.109Z,21.25
2018-03-31T06:51:06.091Z,21.25
2018-03-31T06:52:06.140Z,21.25
2018-03-31T06:53:06.090Z,21.25
2018-03-31T06:54:06.088Z,21.25
2018-03-31T06:55:06.123Z,21.25
2018-03-31T06:56:06.090Z,21.25
2018-03-31T06:57:06.091Z,21.25
2018-03-31T06:58:06.138Z,21.25
2018-03-31T06:59:06.088Z,21.25
2018-03-31T07:00:06.117Z,21.25
2018-03-31T07:01:06.118Z,21.25
2018-03-31T07:02:06.128Z,21.25
2018-03-31T07:03:06.106Z,21.25
2018-03-31T07:04:06.116Z,21.25
2018-03-31T07:05:06.080Z,21.25
2018-03-31T07:06:06.110Z,21.25
2018-03-31T07:07:06.105Z,21.25
2018-03-31T07:08:06.073Z,21.25
2018-03-31T07:09:06.099Z,21.25
2018-03-31T07:10:06.117Z,21.25
2018-03-31T07:11:06.101Z,21.25
2018-03-31T07:12:06.113Z,21.25
2018-03-31T07:13:06.186Z,21.25
2018-03-31T07:14:06.090Z,21.25
2018-03-31T07:15:06.108Z,21.25
2018-03-31T07:16:06.143Z,21.5
2018-03-31T07:17:06.081Z,21.25
2018-03-31T07:18:06.106Z,21.5
2018-03-31T07:19:06.136Z,21.25
2018-03-31T07:20:06.081Z,21.25
2018-03-31T07:21:06.097Z,21.25
2018-03-31T07:22:06.158Z,21.25
2018-03-31T07:23:06.088Z,21.25
2018-03-31T07:24:06.128Z,21.25
2018-03-31T07:26:09.769Z,21.25
2018-03-31T07:27:06.198Z,21.25
2018-03-31T07:28:06.156Z,21.5
2018-03-31T07:29:06.095Z,21.25
2018-03-31T07:30:06.187Z,21.25
2018-03-31T07:31:06.137Z,21.5
2018-03-31T07:32:06.333Z,21.25
2018-03-31T07:33:06.152Z,21.25
2018-03-31T07:34:06.128Z,21.5
2018-03-31T07:35:06.192Z,21.25
2018-03-31T07:36:06.188Z,21.5
2018-03-31T07:37:06.181Z,21.5
2018-03-31T07:38:06.266Z,21.25
2018-03-31T07:39:06.082Z,21.5
2018-03-31T07:40:06.245Z,21.5
2018-03-31T07:41:06.293Z,21.25
2018-03-31T07:42:06.184Z,21.5
2018-03-31T07:43:06.167Z,21.5
2018-03-31T07:44:06.199Z,21.25
2018-03-31T07:45:06.180Z,21.5
2018-03-31T07:46:06.519Z,21.5
2018-03-31T07:47:06.170Z,21.5
2018-03-31T07:48:06.177Z,21.5
2018-03-31T07:49:06.171Z,21.5
2018-03-31T07:50:06.190Z,21.5
2018-03-31T07:51:06.136Z,21.5
2018-03-31T07:52:06.345Z,21.5
2018-03-31T07:53:06.149Z,21.5
2018-03-31T07:54:06.096Z,21.5
2018-03-31T07:55:06.137Z,21.5
2018-03-31T07:56:06.193Z,21.5
2018-03-31T07:57:06.084Z,21.5
2018-03-31T07:58:06.164Z,21.5
2018-03-31T07:59:06.170Z,21.5
2018-03-31T08:00:06.123Z,21.5
2018-03-31T08:01:06.230Z,21.5
2018-03-31T08:02:06.185Z,21.5
2018-03-31T08:03:06.191Z,21.5
2018-03-31T08:04:06.174Z,21.5
2018-03-31T08:05:06.210Z,21.5
2018-03-31T08:06:06.215Z,21.5
2018-03-31T08:07:06.153Z,21.5
2018-03-31T08:08:06.219Z,21.5
2018-03-31T08:09:06.090Z,21.5
2018-03-31T08:10:06.200Z,21.5
2018-03-31T08:11:06.170Z,21.5
2018-03-31T08:12:06.165Z,21.5
2018-03-31T08:13:06.160Z,21.5
2018-03-31T08:14:06.167Z,21.5
2018-03-31T08:15:06.192Z,21.5
2018-03-31T08:16:06.195Z,21.5
2018-03-31T08:17:06.191Z,21.5
2018-03-31T08:18:06.185Z,21.5
2018-03-31T08:19:06.144Z,21.5
2018-03-31T08:20:06.159Z,21.5
2018-03-31T08:21:06.139Z,21.5
2018-03-31T08:22:06.118Z,21.5
2018-03-31T08:23:06.116Z,21.5
2018-03-31T08:24:06.168Z,21.5
2018-03-31T08:25:06.158Z,21.5
2018-03-31T08:26:06.131Z,21.5
2018-03-31T08:27:06.108Z,21.5
2018-03-31T08:28:06.195Z,21.5
2018-03-31T08:29:06.179Z,21.5
2018-03-31T08:30:06.183Z,21.5
2018-03-31T08:31:06.195Z,21.5
2018-03-31T08:32:06.188Z,21.5
2018-03-31T08:33:06.160Z,21.5
2018-03-31T08:34:06.414Z,21.5
2018-03-31T08:35:06.329Z,21.5
2018-03-31T08:36:06.252Z,21.5
2018-03-31T08:37:06.172Z,21.5
2018-03-31T08:38:06.107Z,21.5
2018-03-31T08:39:06.178Z,21.5
2018-03-31T08:40:06.172Z,21.5
2018-03-31T08:41:06.172Z,21.5
2018-03-31T08:42:06.171Z,21.5
2018-03-31T08:43:06.188Z,21.5
2018-03-31T08:44:06.176Z,21.5
2018-03-31T08:45:06.123Z,21.5
2018-03-31T08:46:06.257Z,21.5
2018-03-31T08:47:06.548Z,21.5
2018-03-31T08:48:06.195Z,21.5
2018-03-31T08:49:06.141Z,21.5
2018-03-31T08:50:06.157Z,21.5
2018-03-31T08:51:06.149Z,21.5
2018-03-31T08:52:06.171Z,21.5
2018-03-31T08:53:06.147Z,21.5
2018-03-31T08:54:06.135Z,21.5
2018-03-31T08:55:06.146Z,21.5
2018-03-31T08:56:06.181Z,21.5
2018-03-31T08:57:06.138Z,21.5
2018-03-31T08:58:06.147Z,21.5
2018-03-31T08:59:06.145Z,21.5
2018-03-31T09:00:09.292Z,21.5
2018-03-31T09:01:06.149Z,21.5
2018-03-31T09:02:08.757Z,21.5
2018-03-31T09:03:06.145Z,21.5
2018-03-31T09:04:06.148Z,21.5
2018-03-31T09:05:06.295Z,21.25
2018-03-31T09:06:06.124Z,21.5
2018-03-31T09:07:06.152Z,21.5
2018-03-31T09:08:06.137Z,21.5
2018-03-31T09:09:06.310Z,21.5
2018-03-31T09:10:06.149Z,21.5
2018-03-31T09:11:06.145Z,21.25
2018-03-31T09:12:06.161Z,21.5
2018-03-31T09:13:06.141Z,21.5
2018-03-31T09:14:06.135Z,21.25
2018-03-31T09:15:06.157Z,21.5
2018-03-31T09:16:06.187Z,21.5
2018-03-31T09:17:06.271Z,21.25
2018-03-31T09:18:06.141Z,21.5
2018-03-31T09:19:06.148Z,21.5
2018-03-31T09:20:06.134Z,21.5
2018-03-31T09:21:06.139Z,21.5
2018-03-31T09:22:06.127Z,21.5
2018-03-31T09:23:06.384Z,21.5
2018-03-31T09:24:06.204Z,21.5
2018-03-31T09:25:06.167Z,21.5
2018-03-31T09:26:06.178Z,21.5
2018-03-31T09:27:06.278Z,21.5
2018-03-31T09:28:06.177Z,21.5
2018-03-31T09:29:06.145Z,21.5
2018-03-31T09:30:06.164Z,21.5
2018-03-31T09:31:06.149Z,21.5
2018-03-31T09:32:06.114Z,21.5
2018-03-31T09:33:06.450Z,21.5
2018-03-31T09:34:06.152Z,21.5
2018-03-31T09:35:06.220Z,21.5
2018-03-31T09:36:06.144Z,21.5
2018-03-31T09:37:06.133Z,21.5
2018-03-31T09:38:06.220Z,21.5
2018-03-31T09:39:06.141Z,21.75
2018-03-31T09:40:06.125Z,21.5
2018-03-31T09:41:06.245Z,21.5
2018-03-31T09:42:06.222Z,21.5
2018-03-31T09:43:06.117Z,21.75
2018-03-31T09:44:06.196Z,21.5
2018-03-31T09:45:06.157Z,21.75
2018-03-31T09:46:06.108Z,21.75
2018-03-31T09:47:06.136Z,21.5
2018-03-31T09:48:09.654Z,21.75
2018-03-31T09:49:10.243Z,21.75
2018-03-31T09:50:06.179Z,21.5
2018-03-31T09:51:09.550Z,21.75
2018-03-31T09:52:06.152Z,21.75
2018-03-31T09:53:06.145Z,21.75
2018-03-31T09:54:06.106Z,21.75
2018-03-31T09:55:06.124Z,21.75
2018-03-31T09:56:06.137Z,21.75
2018-03-31T09:57:06.140Z,21.75
2018-03-31T09:58:06.173Z,21.75
2018-03-31T09:59:06.130Z,21.5
2018-03-31T10:00:13.185Z,21.75
2018-03-31T10:01:06.112Z,21.75
2018-03-31T10:02:06.124Z,21.75
2018-03-31T10:03:06.165Z,21.75
2018-03-31T10:04:06.142Z,21.75
2018-03-31T10:05:06.172Z,21.75
2018-03-31T10:06:06.158Z,21.75
2018-03-31T10:07:06.107Z,21.75
2018-03-31T10:08:06.139Z,21.75
2018-03-31T10:09:06.118Z,21.75
2018-03-31T10:10:06.152Z,22
2018-03-31T10:11:06.197Z,21.75
2018-03-31T10:12:06.140Z,21.75
2018-03-31T10:13:06.150Z,21.75
2018-03-31T10:14:06.173Z,21.75
2018-03-31T10:15:06.107Z,21.75
2018-03-31T10:16:06.112Z,21.75
2018-03-31T10:17:06.124Z,21.75
2018-03-31T10:18:06.102Z,22
2018-03-31T10:19:06.190Z,22
2018-03-31T10:20:06.121Z,21.75
2018-03-31T10:21:06.173Z,22
2018-03-31T10:22:06.109Z,22
2018-03-31T10:23:06.121Z,21.75
2018-03-31T10:24:06.121Z,21.75
2018-03-31T10:25:06.162Z,22
2018-03-31T10:26:06.137Z,21.75
2018-03-31T10:27:06.118Z,21.75
2018-03-31T10:28:06.119Z,21.75
2018-03-31T10:29:06.123Z,21.75
2018-03-31T10:30:06.160Z,21.75
2018-03-31T10:31:06.132Z,21.75
2018-03-31T10:32:06.108Z,21.75
2018-03-31T10:33:06.125Z,21.75
2018-03-31T10:34:06.125Z,21.75
2018-03-31T10:35:06.125Z,21.75
2018-03-31T10:36:06.168Z,21.75
2018-03-31T10:37:06.128Z,21.75
2018-03-31T10:38:06.115Z,21.75
2018-03-31T10:39:06.138Z,21.75
2018-03-31T10:40:06.115Z,21.75
2018-03-31T10:41:06.126Z,21.75
2018-03-31T10:42:06.115Z,21.75
2018-03-31T10:43:06.092Z,21.75
2018-03-31T10:44:06.138Z,21.75
2018-03-31T10:45:06.111Z,21.75
2018-03-31T10:46:06.149Z,21.75
2018-03-31T10:47:06.103Z,21.75
2018-03-31T10:48:06.168Z,21.75
2018-03-31T10:49:06.093Z,21.75
2018-03-31T10:50:06.131Z,21.75
2018-03-31T10:51:06.137Z,21.75
2018-03-31T10:52:06.143Z,21.75
2018-03-31T10:53:06.141Z,21.75
2018-03-31T10:54:06.128Z,21.75
2018-03-31T10:55:06.111Z,21.75
2018-03-31T10:56:06.100Z,21.75
2018-03-31T10:57:06.090Z,21.75
2018-03-31T10:58:06.115Z,21.75
2018-03-31T10:59:06.121Z,21.75
2018-03-31T11:00:06.117Z,21.75
2018-03-31T11:01:06.122Z,21.75
2018-03-31T11:02:06.134Z,21.75
2018-03-31T11:03:06.102Z,21.75
2018-03-31T11:04:06.191Z,21.75
2018-03-31T11:05:06.142Z,21.75
2018-03-31T11:06:06.111Z,21.75
2018-03-31T11:07:06.122Z,22
2018-03-31T11:08:06.115Z,21.75
2018-03-31T11:09:06.125Z,22
2018-03-31T11:10:06.120Z,22
2018-03-31T11:11:06.108Z,21.75
2018-03-31T11:12:06.134Z,22
2018-03-31T11:13:06.094Z,22
2018-03-31T11:14:06.101Z,22
2018-03-31T11:15:06.130Z,22
2018-03-31T11:16:06.102Z,22
2018-03-31T11:17:06.149Z,21.75
2018-03-31T11:18:06.117Z,22
2018-03-31T11:19:06.100Z,22
2018-03-31T11:20:06.125Z,22
2018-03-31T11:21:06.101Z,22
2018-03-31T11:22:06.111Z,22
2018-03-31T11:23:06.204Z,22
2018-03-31T11:24:06.166Z,22
2018-03-31T11:25:06.140Z,22
2018-03-31T11:26:06.105Z,22
2018-03-31T11:27:06.114Z,22
2018-03-31T11:28:06.130Z,22
2018-03-31T11:29:06.134Z,22
2018-03-31T11:30:06.126Z,22
2018-03-31T11:31:06.084Z,22
2018-03-31T11:32:06.167Z,22
2018-03-31T11:33:06.100Z,22
2018-03-31T11:34:06.118Z,22
2018-03-31T11:35:06.087Z,22
2018-03-31T11:36:06.118Z,22
2018-03-31T11:37:06.092Z,22
2018-03-31T11:38:06.103Z,22
2018-03-31T11:39:06.130Z,22
2018-03-31T11:40:06.085Z,22
2018-03-31T11:41:06.110Z,22
2018-03-31T11:42:06.257Z,22
2018-03-31T11:43:06.188Z,22
2018-03-31T11:44:06.105Z,22
2018-03-31T11:45:06.304Z,22
2018-03-31T11:46:06.127Z,22
2018-03-31T11:47:06.162Z,22
2018-03-31T11:48:06.134Z,22
2018-03-31T11:49:06.120Z,22
2018-03-31T11:50:06.112Z,22
2018-03-31T11:51:06.134Z,22
2018-03-31T11:52:06.107Z,22
2018-03-31T11:53:06.079Z,22
2018-03-31T11:54:06.258Z,22
2018-03-31T11:55:06.087Z,22
2018-03-31T11:56:06.103Z,22
2018-03-31T11:57:06.117Z,22
2018-03-31T11:58:06.082Z,22
2018-03-31T11:59:06.135Z,22
2018-03-31T12:00:06.096Z,22
2018-03-31T12:01:06.259Z,22
2018-03-31T12:02:06.091Z,22
2018-03-31T12:03:06.091Z,22
2018-03-31T12:04:06.126Z,22
2018-03-31T12:05:06.103Z,22
2018-03-31T12:06:06.114Z,22
2018-03-31T12:07:06.072Z,22
2018-03-31T12:08:06.100Z,22
2018-03-31T12:09:06.134Z,22
2018-03-31T12:10:06.091Z,22
2018-03-31T12:11:06.116Z,22
2018-03-31T12:12:06.090Z,22
2018-03-31T12:13:06.073Z,22
2018-03-31T12:14:06.122Z,22
2018-03-31T12:15:06.102Z,22
2018-03-31T12:16:06.071Z,22
2018-03-31T12:17:06.112Z,22
2018-03-31T12:18:06.112Z,22
2018-03-31T12:19:06.121Z,22
2018-03-31T12:20:06.107Z,22
2018-03-31T12:21:06.100Z,22
2018-03-31T12:22:06.093Z,22
2018-03-31T12:23:06.086Z,21.75
2018-03-31T12:24:06.114Z,22
2018-03-31T12:25:06.144Z,22
2018-03-31T12:26:06.103Z,22
2018-03-31T12:26:44.136Z,22
2018-03-31T12:27:26.486Z,22
2018-03-31T12:28:26.465Z,22
2018-03-31T12:29:26.480Z,22
2018-03-31T12:30:26.466Z,22
2018-03-31T12:30:59.341Z,21.75
2018-03-31T12:31:59.265Z,22
2018-03-31T12:32:59.275Z,22
2018-03-31T12:33:59.267Z,22
2018-03-31T12:34:59.270Z,21.75
2018-03-31T12:35:59.569Z,22
2018-03-31T12:36:59.293Z,22
2018-03-31T12:37:59.284Z,22
2018-03-31T12:38:59.272Z,22
2018-03-31T12:39:59.304Z,22
2018-03-31T12:40:59.347Z,22
2018-03-31T12:41:59.293Z,22
2018-03-31T12:42:59.280Z,22
2018-03-31T12:43:59.301Z,22
2018-03-31T12:45:13.152Z,22
2018-03-31T12:46:13.133Z,22.25
2018-03-31T12:47:13.195Z,22.25
2018-03-31T12:48:13.144Z,22.25
2018-03-31T12:49:13.191Z,22.25
2018-03-31T12:50:13.143Z,22.25
2018-03-31T12:51:13.143Z,22.25
2018-03-31T12:52:13.413Z,22.25
2018-03-31T12:53:13.157Z,22.25
2018-03-31T12:54:13.145Z,22.5
2018-03-31T12:55:13.133Z,22.25
2018-03-31T12:56:13.134Z,22.25
2018-03-31T12:57:13.278Z,22.25
2018-03-31T12:58:13.185Z,22.25
2018-03-31T12:59:13.147Z,22.25
2018-03-31T13:00:13.163Z,22.25
2018-03-31T13:01:13.149Z,22.25
2018-03-31T13:02:13.179Z,22.25
2018-03-31T13:03:13.154Z,22.25
2018-03-31T13:04:13.169Z,22.25
2018-03-31T13:05:13.137Z,22.25
2018-03-31T13:06:13.138Z,22.25
2018-03-31T13:07:13.147Z,22.25
2018-03-31T13:08:13.430Z,22.25
2018-03-31T13:09:13.201Z,22.25
2018-03-31T13:10:13.130Z,22.25
2018-03-31T13:11:13.134Z,22.25
2018-03-31T13:12:13.139Z,22.25
2018-03-31T13:13:13.157Z,22.25
2018-03-31T13:14:13.126Z,22.25
2018-03-31T13:15:13.219Z,22.25
2018-03-31T13:16:13.216Z,22.25
2018-03-31T13:17:13.132Z,22.25
2018-03-31T13:18:13.174Z,22.25
2018-03-31T13:19:13.122Z,22.25
2018-03-31T13:20:13.135Z,22.25
2018-03-31T13:21:13.162Z,22.25
2018-03-31T13:22:13.120Z,22.25
2018-03-31T13:23:13.151Z,22.25